Time,TemperatureF,DewpointF,PressureIn,WindDirection,WindDirectionDegrees,WindSpeedMPH,WindSpeedGustMPH,Humidity,HourlyPrecipIn,Conditions,Clouds,dailyrainin,SoftwareType,DateUTC
2013-10-14 00:00:00,69.8,66.4,30.08,ENE,70,2.0,5.0,89,0.00,,---,0.00,VWS V14.00,2013-10-14 04:00:00,
2013-10-14 00:01:00,69.8,66.4,30.08,ENE,73,0.0,3.0,89,0.00,,---,0.00,VWS V14.00,2013-10-14 04:01:00,
2013-10-14 00:06:00,69.7,66.3,30.08,NE,38,0.0,1.0,89,0.00,,---,0.00,VWS V14.00,2013-10-14 04:06:00,
2013-10-14 00:11:00,69.7,66.3,30.08,ENE,61,0.0,1.0,89,0.00,,---,0.00,VWS V14.00,2013-10-14 04:11:00,
2013-10-14 00:16:00,69.6,66.2,30.08,ENE,64,2.0,4.0,89,0.00,,---,0.00,VWS V14.00,2013-10-14 04:16:00,
2013-10-14 00:21:00,69.5,66.1,30.08,NE,38,5.0,5.0,89,0.00,,---,0.00,VWS V14.00,2013-10-14 04:21:00,
2013-10-14 00:26:00,69.5,66.1,30.08,NE,49,0.0,2.0,89,0.00,,---,0.00,VWS V14.00,2013-10-14 04:26:00,
2013-10-14 00:31:00,69.5,66.1,30.08,NNE,24,0.0,0.0,89,0.00,,---,0.00,VWS V14.00,2013-10-14 04:31:00,
2013-10-14 00:36:00,69.4,66.0,30.08,NNE,32,1.0,3.0,89,0.00,,---,0.00,VWS V14.00,2013-10-14 04:36:00,
2013-10-14 00:41:00,69.3,65.9,30.08,East,92,4.0,5.0,89,0.00,,---,0.00,VWS V14.00,2013-10-14 04:41:00,
2013-10-14 00:46:00,69.3,65.9,30.08,ENE,60,1.0,1.0,89,0.00,,---,0.00,VWS V14.00,2013-10-14 04:46:00,
2013-10-14 00:51:00,69.2,65.8,30.08,East,83,0.0,1.0,89,0.00,,---,0.00,VWS V14.00,2013-10-14 04:51:00,
2013-10-14 00:56:00,69.2,65.8,30.08,ENE,62,0.0,1.0,89,0.00,,---,0.00,VWS V14.00,2013-10-14 04:56:00,
2013-10-14 01:01:00,69.2,65.8,30.07,NE,44,2.0,4.0,89,0.00,,---,0.00,VWS V14.00,2013-10-14 05:01:00,
2013-10-14 01:06:00,69.1,65.7,30.08,ENE,59,0.0,2.0,89,0.00,,---,0.00,VWS V14.00,2013-10-14 05:06:00,
2013-10-14 01:11:00,69.0,65.6,30.07,NNE,21,2.0,3.0,89,0.00,,---,0.00,VWS V14.00,2013-10-14 05:11:00,
2013-10-14 01:16:00,69.0,65.6,30.07,ENE,63,0.0,0.0,89,0.00,,---,0.00,VWS V14.00,2013-10-14 05:16:00,
2013-10-14 01:21:00,68.9,65.8,30.07,ENE,67,1.0,1.0,90,0.00,,---,0.00,VWS V14.00,2013-10-14 05:21:00,
2013-10-14 01:26:00,68.9,65.5,30.07,NE,38,1.0,3.0,89,0.00,,---,0.00,VWS V14.00,2013-10-14 05:26:00,
2013-10-14 01:31:00,68.8,65.8,30.07,NNE,25,0.0,0.0,90,0.00,,---,0.00,VWS V14.00,2013-10-14 05:31:00,
2013-10-14 01:36:00,68.7,65.7,30.07,ENE,62,0.0,3.0,90,0.00,,---,0.00,VWS V14.00,2013-10-14 05:36:00,
2013-10-14 01:41:00,68.7,65.7,30.07,NNE,17,1.0,3.0,90,0.00,,---,0.00,VWS V14.00,2013-10-14 05:41:00,
2013-10-14 01:46:00,68.7,65.7,30.07,East,86,1.0,4.0,90,0.00,,---,0.00,VWS V14.00,2013-10-14 05:46:00,
2013-10-14 01:51:00,68.6,65.6,30.06,NE,47,0.0,4.0,90,0.00,,---,0.00,VWS V14.00,2013-10-14 05:51:00,
2013-10-14 01:56:00,68.6,65.6,30.07,ENE,67,0.0,6.0,90,0.00,,---,0.00,VWS V14.00,2013-10-14 05:56:00,
2013-10-14 02:01:00,68.6,65.6,30.07,SE,124,0.0,6.0,90,0.00,,---,0.00,VWS V14.00,2013-10-14 06:01:00,
2013-10-14 02:06:00,68.6,65.6,30.06,NE,43,0.0,1.0,90,0.00,,---,0.00,VWS V14.00,2013-10-14 06:06:00,
2013-10-14 02:11:00,68.6,65.6,30.06,NE,37,1.0,1.0,90,0.00,,---,0.00,VWS V14.00,2013-10-14 06:11:00,
2013-10-14 02:16:00,68.5,65.5,30.06,NE,35,0.0,2.0,90,0.00,,---,0.00,VWS V14.00,2013-10-14 06:16:00,
2013-10-14 02:21:00,68.5,65.8,30.05,ENE,63,0.0,0.0,91,0.00,,---,0.00,VWS V14.00,2013-10-14 06:21:00,
2013-10-14 02:26:00,68.5,65.8,30.05,NE,46,5.0,11.0,91,0.00,,---,0.00,VWS V14.00,2013-10-14 06:26:00,
2013-10-14 02:31:00,68.5,65.8,30.05,NE,37,2.0,8.0,91,0.00,,---,0.00,VWS V14.00,2013-10-14 06:31:00,
2013-10-14 02:36:00,68.5,65.8,30.05,NE,36,0.0,1.0,91,0.00,,---,0.00,VWS V14.00,2013-10-14 06:36:00,
2013-10-14 02:41:00,68.5,65.8,30.05,ENE,57,0.0,0.0,91,0.00,,---,0.00,VWS V14.00,2013-10-14 06:41:00,
2013-10-14 02:46:00,68.5,65.8,30.05,NE,52,0.0,1.0,91,0.00,,---,0.00,VWS V14.00,2013-10-14 06:46:00,
2013-10-14 02:51:00,68.5,65.8,30.05,NE,51,0.0,1.0,91,0.00,,---,0.00,VWS V14.00,2013-10-14 06:51:00,
2013-10-14 02:56:00,68.5,65.8,30.05,NNE,27,1.0,2.0,91,0.00,,---,0.00,VWS V14.00,2013-10-14 06:56:00,
2013-10-14 03:01:00,68.5,65.8,30.05,NE,43,0.0,1.0,91,0.00,,---,0.00,VWS V14.00,2013-10-14 07:01:00,
2013-10-14 03:06:00,68.4,65.7,30.05,ENE,69,0.0,0.0,91,0.00,,---,0.00,VWS V14.00,2013-10-14 07:06:00,
2013-10-14 03:11:00,68.5,65.8,30.05,NE,55,0.0,0.0,91,0.00,,---,0.00,VWS V14.00,2013-10-14 07:11:00,
2013-10-14 03:16:00,68.4,65.7,30.05,ENE,60,1.0,1.0,91,0.00,,---,0.00,VWS V14.00,2013-10-14 07:16:00,
2013-10-14 03:21:00,68.4,65.7,30.05,ENE,61,0.0,3.0,91,0.00,,---,0.00,VWS V14.00,2013-10-14 07:21:00,
2013-10-14 03:26:00,68.4,65.7,30.05,ENE,59,2.0,2.0,91,0.00,,---,0.00,VWS V14.00,2013-10-14 07:26:00,
2013-10-14 03:31:00,68.4,65.7,30.05,ENE,65,0.0,2.0,91,0.00,,---,0.00,VWS V14.00,2013-10-14 07:31:00,
2013-10-14 03:36:00,68.4,65.7,30.05,ENE,63,2.0,3.0,91,0.00,,---,0.00,VWS V14.00,2013-10-14 07:36:00,
2013-10-14 03:41:00,68.4,65.7,30.05,NE,53,0.0,3.0,91,0.00,,---,0.00,VWS V14.00,2013-10-14 07:41:00,
2013-10-14 03:46:00,68.4,65.7,30.05,NNE,24,0.0,0.0,91,0.00,,---,0.00,VWS V14.00,2013-10-14 07:46:00,
2013-10-14 03:51:00,68.4,65.7,30.05,NNE,20,1.0,3.0,91,0.00,,---,0.00,VWS V14.00,2013-10-14 07:51:00,
2013-10-14 03:56:00,68.4,65.7,30.05,NNE,29,0.0,0.0,91,0.00,,---,0.00,VWS V14.00,2013-10-14 07:56:00,
2013-10-14 04:01:00,68.4,65.7,30.05,ENE,67,0.0,1.0,91,0.00,,---,0.00,VWS V14.00,2013-10-14 08:01:00,
2013-10-14 04:06:00,68.4,66.0,30.05,ENE,61,0.0,0.0,92,0.00,,---,0.00,VWS V14.00,2013-10-14 08:06:00,
2013-10-14 04:11:00,68.4,65.7,30.05,NE,38,0.0,0.0,91,0.00,,---,0.00,VWS V14.00,2013-10-14 08:11:00,
2013-10-14 04:16:00,68.4,65.7,30.05,East,82,0.0,1.0,91,0.00,,---,0.00,VWS V14.00,2013-10-14 08:16:00,
2013-10-14 04:21:00,68.4,66.0,30.05,ENE,64,0.0,0.0,92,0.00,,---,0.00,VWS V14.00,2013-10-14 08:21:00,
2013-10-14 04:26:00,68.4,66.0,30.05,ENE,63,1.0,1.0,92,0.00,,---,0.00,VWS V14.00,2013-10-14 08:26:00,
2013-10-14 04:31:00,68.4,65.7,30.05,NE,35,0.0,0.0,91,0.00,,---,0.00,VWS V14.00,2013-10-14 08:31:00,
2013-10-14 04:36:00,68.4,65.7,30.06,ENE,63,0.0,5.0,91,0.00,,---,0.00,VWS V14.00,2013-10-14 08:36:00,
2013-10-14 04:41:00,68.4,66.0,30.06,East,86,0.0,4.0,92,0.00,,---,0.00,VWS V14.00,2013-10-14 08:41:00,
2013-10-14 04:46:00,68.4,65.7,30.05,NNE,19,0.0,1.0,91,0.00,,---,0.00,VWS V14.00,2013-10-14 08:46:00,
2013-10-14 04:51:00,68.4,65.7,30.06,ENE,63,0.0,0.0,91,0.00,,---,0.00,VWS V14.00,2013-10-14 08:51:00,
2013-10-14 04:56:00,68.4,65.7,30.05,NE,42,0.0,1.0,91,0.00,,---,0.00,VWS V14.00,2013-10-14 08:56:00,
2013-10-14 05:01:00,68.4,66.0,30.05,NE,34,0.0,0.0,92,0.00,,---,0.00,VWS V14.00,2013-10-14 09:01:00,
2013-10-14 05:06:00,68.4,66.0,30.06,East,82,0.0,1.0,92,0.00,,---,0.00,VWS V14.00,2013-10-14 09:06:00,
2013-10-14 05:11:00,68.4,65.7,30.05,East,86,0.0,2.0,91,0.00,,---,0.00,VWS V14.00,2013-10-14 09:11:00,
2013-10-14 05:16:00,68.4,65.7,30.06,ENE,66,0.0,1.0,91,0.00,,---,0.00,VWS V14.00,2013-10-14 09:16:00,
2013-10-14 05:21:00,68.4,65.7,30.06,NE,41,0.0,0.0,91,0.00,,---,0.00,VWS V14.00,2013-10-14 09:21:00,
2013-10-14 05:26:00,68.4,65.7,30.06,ENE,57,0.0,1.0,91,0.00,,---,0.00,VWS V14.00,2013-10-14 09:26:00,
2013-10-14 05:31:00,68.4,65.7,30.06,ENE,61,0.0,0.0,91,0.00,,---,0.00,VWS V14.00,2013-10-14 09:31:00,
2013-10-14 05:36:00,68.4,65.7,30.05,East,79,0.0,0.0,91,0.00,,---,0.00,VWS V14.00,2013-10-14 09:36:00,
2013-10-14 05:41:00,68.4,65.7,30.06,East,79,0.0,0.0,91,0.00,,---,0.00,VWS V14.00,2013-10-14 09:41:00,
2013-10-14 05:46:00,68.4,65.7,30.06,North,9,2.0,7.0,91,0.00,,---,0.00,VWS V14.00,2013-10-14 09:46:00,
2013-10-14 05:51:00,68.4,66.0,30.06,ENE,71,0.0,0.0,92,0.00,,---,0.00,VWS V14.00,2013-10-14 09:51:00,
2013-10-14 05:56:00,68.4,65.7,30.06,ENE,69,5.0,5.0,91,0.00,,---,0.00,VWS V14.00,2013-10-14 09:56:00,
2013-10-14 06:01:00,68.4,66.0,30.06,NE,41,2.0,8.0,92,0.00,,---,0.00,VWS V14.00,2013-10-14 10:01:00,
2013-10-14 06:06:00,68.3,65.6,30.06,ENE,76,1.0,1.0,91,0.00,,---,0.00,VWS V14.00,2013-10-14 10:06:00,
2013-10-14 06:11:00,68.3,65.6,30.06,WNW,290,0.0,2.0,91,0.00,,---,0.00,VWS V14.00,2013-10-14 10:11:00,
2013-10-14 06:16:00,68.2,65.5,30.06,East,91,1.0,1.0,91,0.00,,---,0.00,VWS V14.00,2013-10-14 10:16:00,
2013-10-14 06:21:00,68.2,65.5,30.06,East,82,0.0,3.0,91,0.00,,---,0.00,VWS V14.00,2013-10-14 10:21:00,
2013-10-14 06:26:00,68.2,65.5,30.06,WSW,252,3.0,3.0,91,0.00,,---,0.00,VWS V14.00,2013-10-14 10:26:00,
2013-10-14 06:31:00,68.2,65.5,30.06,North,9,0.0,1.0,91,0.00,,---,0.00,VWS V14.00,2013-10-14 10:31:00,
2013-10-14 06:36:00,68.2,65.5,30.06,NE,35,0.0,0.0,91,0.00,,---,0.00,VWS V14.00,2013-10-14 10:36:00,
2013-10-14 06:41:00,68.2,65.5,30.06,North,5,0.0,1.0,91,0.00,,---,0.00,VWS V14.00,2013-10-14 10:41:00,
2013-10-14 06:46:00,68.2,65.5,30.06,NE,44,0.0,0.0,91,0.00,,---,0.00,VWS V14.00,2013-10-14 10:46:00,
2013-10-14 06:51:00,68.2,65.5,30.06,ENE,75,2.0,5.0,91,0.00,,---,0.00,VWS V14.00,2013-10-14 10:51:00,
2013-10-14 06:56:00,68.2,65.5,30.06,ENE,69,3.0,4.0,91,0.00,,---,0.00,VWS V14.00,2013-10-14 10:56:00,
2013-10-14 07:01:00,68.2,65.5,30.07,East,96,7.0,7.0,91,0.00,,---,0.00,VWS V14.00,2013-10-14 11:01:00,
2013-10-14 07:06:00,68.3,65.6,30.07,NE,51,3.0,3.0,91,0.00,,---,0.00,VWS V14.00,2013-10-14 11:06:00,
2013-10-14 07:10:00,68.3,65.6,30.07,NE,45,1.0,1.0,91,0.00,,---,0.00,VWS V14.00,2013-10-14 11:10:00,
2013-10-14 07:15:00,68.3,65.6,30.07,ENE,74,0.0,0.0,91,0.00,,---,0.00,VWS V14.00,2013-10-14 11:15:00,
2013-10-14 07:20:00,68.3,65.6,30.07,NE,43,0.0,1.0,91,0.00,,---,0.00,VWS V14.00,2013-10-14 11:20:00,
2013-10-14 07:25:00,68.3,65.6,30.07,WSW,240,0.0,1.0,91,0.00,,---,0.00,VWS V14.00,2013-10-14 11:25:00,
2013-10-14 07:30:00,68.3,65.9,30.07,WSW,241,0.0,0.0,92,0.00,,---,0.00,VWS V14.00,2013-10-14 11:30:00,
2013-10-14 07:35:00,68.3,65.9,30.07,NNE,32,0.0,0.0,92,0.00,,---,0.00,VWS V14.00,2013-10-14 11:35:00,
2013-10-14 07:40:00,68.3,65.9,30.07,NNE,32,0.0,0.0,92,0.00,,---,0.00,VWS V14.00,2013-10-14 11:40:00,
2013-10-14 07:45:00,68.2,65.8,30.07,NNE,32,0.0,0.0,92,0.00,,---,0.00,VWS V14.00,2013-10-14 11:45:00,
2013-10-14 07:50:00,68.2,65.8,30.08,ENE,66,0.0,0.0,92,0.00,,---,0.00,VWS V14.00,2013-10-14 11:50:00,
2013-10-14 07:55:00,68.3,65.9,30.08,ENE,72,1.0,1.0,92,0.00,,---,0.00,VWS V14.00,2013-10-14 11:55:00,
2013-10-14 08:00:00,68.3,65.9,30.08,NNE,32,2.0,2.0,92,0.00,,---,0.00,VWS V14.00,2013-10-14 12:00:00,
2013-10-14 08:05:00,68.3,65.9,30.08,NE,38,0.0,2.0,92,0.00,,---,0.00,VWS V14.00,2013-10-14 12:05:00,
2013-10-14 08:10:00,68.3,65.9,30.08,ENE,57,1.0,1.0,92,0.00,,---,0.00,VWS V14.00,2013-10-14 12:10:00,
2013-10-14 08:15:00,68.3,65.9,30.08,ENE,57,0.0,0.0,92,0.00,,---,0.00,VWS V14.00,2013-10-14 12:15:00,
2013-10-14 08:20:00,68.3,65.9,30.08,ENE,59,0.0,0.0,92,0.00,,---,0.00,VWS V14.00,2013-10-14 12:20:00,
2013-10-14 08:25:00,68.3,65.9,30.08,ENE,61,0.0,0.0,92,0.00,,---,0.00,VWS V14.00,2013-10-14 12:25:00,
2013-10-14 08:30:00,68.4,66.0,30.09,NE,36,0.0,2.0,92,0.00,,---,0.00,VWS V14.00,2013-10-14 12:30:00,
2013-10-14 08:35:00,68.4,66.0,30.09,ENE,69,2.0,3.0,92,0.00,,---,0.00,VWS V14.00,2013-10-14 12:35:00,
2013-10-14 08:40:00,68.4,66.0,30.09,SE,145,0.0,0.0,92,0.00,,---,0.00,VWS V14.00,2013-10-14 12:40:00,
2013-10-14 08:45:00,68.4,66.0,30.09,NNE,23,0.0,0.0,92,0.00,,---,0.00,VWS V14.00,2013-10-14 12:45:00,
2013-10-14 08:50:00,68.4,66.0,30.09,NNE,23,0.0,0.0,92,0.00,,---,0.00,VWS V14.00,2013-10-14 12:50:00,
2013-10-14 08:55:00,68.5,66.1,30.09,NNE,15,0.0,0.0,92,0.00,,---,0.00,VWS V14.00,2013-10-14 12:55:00,
2013-10-14 09:00:00,68.5,66.1,30.10,NNE,15,0.0,0.0,92,0.00,,---,0.00,VWS V14.00,2013-10-14 13:00:00,
2013-10-14 09:05:00,68.5,66.1,30.09,NNE,29,1.0,1.0,92,0.00,,---,0.00,VWS V14.00,2013-10-14 13:05:00,
2013-10-14 09:10:00,68.5,66.1,30.09,ENE,67,0.0,0.0,92,0.00,,---,0.00,VWS V14.00,2013-10-14 13:10:00,
2013-10-14 09:15:00,68.6,66.2,30.09,NNW,327,0.0,0.0,92,0.00,,---,0.00,VWS V14.00,2013-10-14 13:15:00,
2013-10-14 09:20:00,68.6,66.2,30.09,South,183,1.0,2.0,92,0.00,,---,0.00,VWS V14.00,2013-10-14 13:20:00,
2013-10-14 09:25:00,68.6,66.2,30.09,NNW,348,0.0,1.0,92,0.00,,---,0.00,VWS V14.00,2013-10-14 13:25:00,
2013-10-14 09:30:00,68.7,66.3,30.09,NNE,22,0.0,0.0,92,0.00,,---,0.00,VWS V14.00,2013-10-14 13:30:00,
2013-10-14 09:35:00,68.8,66.4,30.09,NE,50,0.0,0.0,92,0.00,,---,0.00,VWS V14.00,2013-10-14 13:35:00,
2013-10-14 09:40:00,68.9,66.5,30.09,NNE,26,0.0,0.0,92,0.00,,---,0.00,VWS V14.00,2013-10-14 13:40:00,
2013-10-14 09:45:00,68.9,66.2,30.09,NE,38,0.0,1.0,91,0.00,,---,0.00,VWS V14.00,2013-10-14 13:45:00,
2013-10-14 09:50:00,68.9,66.2,30.09,SE,126,0.0,1.0,91,0.00,,---,0.00,VWS V14.00,2013-10-14 13:50:00,
2013-10-14 09:55:00,69.0,66.3,30.09,NW,315,0.0,0.0,91,0.00,,---,0.00,VWS V14.00,2013-10-14 13:55:00,
2013-10-14 10:00:00,69.0,66.3,30.09,NNE,30,0.0,0.0,91,0.00,,---,0.00,VWS V14.00,2013-10-14 14:00:00,
2013-10-14 10:05:00,69.1,66.4,30.09,ENE,60,0.0,0.0,91,0.00,,---,0.00,VWS V14.00,2013-10-14 14:05:00,
2013-10-14 10:10:00,69.3,66.6,30.09,NNE,22,0.0,1.0,91,0.00,,---,0.00,VWS V14.00,2013-10-14 14:10:00,
2013-10-14 10:15:00,69.3,66.6,30.09,NE,54,2.0,4.0,91,0.00,,---,0.00,VWS V14.00,2013-10-14 14:15:00,
2013-10-14 10:20:00,69.4,66.7,30.10,ENE,63,0.0,1.0,91,0.00,,---,0.00,VWS V14.00,2013-10-14 14:20:00,
2013-10-14 10:25:00,69.5,66.8,30.10,NE,43,0.0,0.0,91,0.00,,---,0.00,VWS V14.00,2013-10-14 14:25:00,
2013-10-14 10:30:00,69.5,66.4,30.10,North,5,0.0,0.0,90,0.00,,---,0.00,VWS V14.00,2013-10-14 14:30:00,
2013-10-14 10:35:00,69.6,66.5,30.10,ENE,57,0.0,0.0,90,0.00,,---,0.00,VWS V14.00,2013-10-14 14:35:00,
2013-10-14 10:40:00,69.7,66.6,30.10,NW,321,0.0,1.0,90,0.00,,---,0.00,VWS V14.00,2013-10-14 14:40:00,
2013-10-14 10:45:00,69.7,66.6,30.10,ENE,63,0.0,0.0,90,0.00,,---,0.00,VWS V14.00,2013-10-14 14:45:00,
2013-10-14 10:50:00,69.8,66.7,30.10,NNE,32,2.0,3.0,90,0.00,,---,0.00,VWS V14.00,2013-10-14 14:50:00,
2013-10-14 10:55:00,69.8,66.7,30.09,NE,49,1.0,1.0,90,0.00,,---,0.00,VWS V14.00,2013-10-14 14:55:00,
2013-10-14 11:00:00,69.8,66.7,30.09,East,84,5.0,5.0,90,0.00,,---,0.00,VWS V14.00,2013-10-14 15:00:00,
2013-10-14 11:05:00,69.9,66.8,30.09,NNE,16,2.0,2.0,90,0.00,,---,0.00,VWS V14.00,2013-10-14 15:05:00,
2013-10-14 11:10:00,70.0,66.9,30.09,NNE,19,0.0,1.0,90,0.00,,---,0.00,VWS V14.00,2013-10-14 15:10:00,
2013-10-14 11:15:00,70.1,67.0,30.09,ENE,62,0.0,0.0,90,0.00,,---,0.00,VWS V14.00,2013-10-14 15:15:00,
2013-10-14 11:20:00,70.1,67.0,30.09,NNE,30,0.0,0.0,90,0.00,,---,0.00,VWS V14.00,2013-10-14 15:20:00,
2013-10-14 11:25:00,70.2,67.1,30.09,East,80,1.0,2.0,90,0.00,,---,0.00,VWS V14.00,2013-10-14 15:25:00,
2013-10-14 11:30:00,70.3,67.2,30.08,NNE,31,0.0,0.0,90,0.00,,---,0.00,VWS V14.00,2013-10-14 15:30:00,
2013-10-14 11:35:00,70.5,67.4,30.08,North,360,0.0,0.0,90,0.00,,---,0.00,VWS V14.00,2013-10-14 15:35:00,
2013-10-14 11:40:00,70.6,67.2,30.08,NE,35,0.0,0.0,89,0.00,,---,0.00,VWS V14.00,2013-10-14 15:40:00,
2013-10-14 11:45:00,70.7,67.3,30.08,NNE,19,3.0,3.0,89,0.00,,---,0.00,VWS V14.00,2013-10-14 15:45:00,
2013-10-14 11:50:00,70.9,67.5,30.08,ENE,67,1.0,1.0,89,0.00,,---,0.00,VWS V14.00,2013-10-14 15:50:00,
2013-10-14 11:55:00,71.0,67.6,30.08,East,87,0.0,2.0,89,0.00,,---,0.00,VWS V14.00,2013-10-14 15:55:00,
2013-10-14 12:00:00,71.0,67.6,30.08,East,86,1.0,3.0,89,0.00,,---,0.00,VWS V14.00,2013-10-14 16:00:00,
2013-10-14 12:05:00,71.1,67.4,30.07,ENE,69,1.0,1.0,88,0.00,,---,0.00,VWS V14.00,2013-10-14 16:05:00,
2013-10-14 12:10:00,71.2,67.5,30.07,NE,44,2.0,2.0,88,0.00,,---,0.00,VWS V14.00,2013-10-14 16:10:00,
2013-10-14 12:15:00,71.3,67.6,30.07,ENE,67,4.0,5.0,88,0.00,,---,0.00,VWS V14.00,2013-10-14 16:15:00,
2013-10-14 12:20:00,71.3,67.6,30.07,North,360,0.0,1.0,88,0.00,,---,0.00,VWS V14.00,2013-10-14 16:20:00,
2013-10-14 12:25:00,71.4,67.7,30.07,East,91,0.0,0.0,88,0.00,,---,0.00,VWS V14.00,2013-10-14 16:25:00,
2013-10-14 12:30:00,71.5,67.8,30.07,East,82,0.0,1.0,88,0.00,,---,0.00,VWS V14.00,2013-10-14 16:30:00,
2013-10-14 12:35:00,71.6,67.9,30.07,NE,42,0.0,1.0,88,0.00,,---,0.00,VWS V14.00,2013-10-14 16:35:00,
2013-10-14 12:40:00,71.8,68.1,30.07,NE,37,0.0,1.0,88,0.00,,---,0.00,VWS V14.00,2013-10-14 16:40:00,
2013-10-14 12:45:00,71.9,68.2,30.07,NE,34,1.0,1.0,88,0.00,,---,0.00,VWS V14.00,2013-10-14 16:45:00,
2013-10-14 12:50:00,72.0,67.9,30.07,NE,42,0.0,0.0,87,0.00,,---,0.00,VWS V14.00,2013-10-14 16:50:00,
2013-10-14 12:55:00,72.0,67.9,30.07,NE,50,1.0,1.0,87,0.00,,---,0.00,VWS V14.00,2013-10-14 16:55:00,
2013-10-14 13:00:00,72.0,67.9,30.07,ENE,67,0.0,0.0,87,0.00,,---,0.00,VWS V14.00,2013-10-14 17:00:00,
2013-10-14 13:05:00,72.0,67.6,30.06,East,98,2.0,4.0,86,0.00,,---,0.00,VWS V14.00,2013-10-14 17:05:00,
2013-10-14 13:10:00,71.9,67.5,30.06,NNE,30,1.0,1.0,86,0.00,,---,0.00,VWS V14.00,2013-10-14 17:10:00,
2013-10-14 13:15:00,71.8,67.7,30.06,NNE,32,3.0,5.0,87,0.00,,---,0.00,VWS V14.00,2013-10-14 17:15:00,
2013-10-14 13:20:00,71.8,67.7,30.06,ENE,76,1.0,2.0,87,0.00,,---,0.00,VWS V14.00,2013-10-14 17:20:00,
2013-10-14 13:25:00,71.7,67.6,30.05,NE,40,1.0,1.0,87,0.00,,---,0.00,VWS V14.00,2013-10-14 17:25:00,
2013-10-14 13:30:00,71.7,67.6,30.05,ENE,57,1.0,1.0,87,0.00,,---,0.00,VWS V14.00,2013-10-14 17:30:00,
2013-10-14 13:35:00,71.7,67.6,30.05,NE,40,2.0,2.0,87,0.00,,---,0.00,VWS V14.00,2013-10-14 17:35:00,
2013-10-14 13:40:00,71.7,67.6,30.05,ENE,60,4.0,5.0,87,0.00,,---,0.00,VWS V14.00,2013-10-14 17:40:00,
2013-10-14 13:45:00,71.9,68.2,30.05,ENE,73,0.0,2.0,88,0.00,,---,0.00,VWS V14.00,2013-10-14 17:45:00,
2013-10-14 13:50:00,72.0,67.9,30.05,East,79,1.0,2.0,87,0.00,,---,0.00,VWS V14.00,2013-10-14 17:50:00,
2013-10-14 13:55:00,72.2,68.1,30.04,ENE,76,0.0,0.0,87,0.00,,---,0.00,VWS V14.00,2013-10-14 17:55:00,
2013-10-14 14:00:00,72.2,67.8,30.04,NE,39,3.0,4.0,86,0.00,,---,0.00,VWS V14.00,2013-10-14 18:00:00,
2013-10-14 14:05:00,72.4,68.0,30.04,ENE,61,0.0,0.0,86,0.00,,---,0.00,VWS V14.00,2013-10-14 18:05:00,
2013-10-14 14:10:00,72.7,68.3,30.03,NE,45,0.0,0.0,86,0.00,,---,0.00,VWS V14.00,2013-10-14 18:10:00,
2013-10-14 14:15:00,73.0,68.2,30.03,NE,55,4.0,4.0,85,0.00,,---,0.00,VWS V14.00,2013-10-14 18:15:00,
2013-10-14 14:20:00,73.3,68.5,30.03,East,88,1.0,1.0,85,0.00,,---,0.00,VWS V14.00,2013-10-14 18:20:00,
2013-10-14 14:25:00,73.4,68.3,30.03,NE,51,1.0,1.0,84,0.00,,---,0.00,VWS V14.00,2013-10-14 18:25:00,
2013-10-14 14:30:00,73.6,68.5,30.03,NE,41,1.0,1.0,84,0.00,,---,0.00,VWS V14.00,2013-10-14 18:30:00,
2013-10-14 14:35:00,73.6,68.1,30.03,NE,36,5.0,5.0,83,0.00,,---,0.00,VWS V14.00,2013-10-14 18:35:00,
2013-10-14 14:40:00,73.7,68.2,30.03,ENE,67,1.0,1.0,83,0.00,,---,0.00,VWS V14.00,2013-10-14 18:40:00,
2013-10-14 14:45:00,73.7,68.2,30.03,East,98,1.0,3.0,83,0.00,,---,0.00,VWS V14.00,2013-10-14 18:45:00,
2013-10-14 14:50:00,73.7,68.2,30.03,NNW,332,0.0,6.0,83,0.00,,---,0.00,VWS V14.00,2013-10-14 18:50:00,
2013-10-14 14:55:00,73.6,68.1,30.03,ENE,63,1.0,5.0,83,0.00,,---,0.00,VWS V14.00,2013-10-14 18:55:00,
2013-10-14 15:00:00,73.5,68.0,30.03,ESE,103,4.0,5.0,83,0.00,,---,0.00,VWS V14.00,2013-10-14 19:00:00,
2013-10-14 15:05:00,73.4,67.9,30.03,ENE,61,2.0,7.0,83,0.00,,---,0.00,VWS V14.00,2013-10-14 19:05:00,
2013-10-14 15:10:00,73.3,67.8,30.03,NE,36,2.0,2.0,83,0.00,,---,0.00,VWS V14.00,2013-10-14 19:10:00,
2013-10-14 15:15:00,73.3,68.2,30.03,East,85,6.0,6.0,84,0.00,,---,0.00,VWS V14.00,2013-10-14 19:15:00,
2013-10-14 15:20:00,73.2,68.1,30.03,NE,49,3.0,5.0,84,0.00,,---,0.00,VWS V14.00,2013-10-14 19:20:00,
2013-10-14 15:25:00,73.3,68.2,30.03,NNE,29,3.0,4.0,84,0.00,,---,0.00,VWS V14.00,2013-10-14 19:25:00,
2013-10-14 15:30:00,73.3,68.2,30.03,ENE,74,0.0,0.0,84,0.00,,---,0.00,VWS V14.00,2013-10-14 19:30:00,
2013-10-14 15:35:00,73.3,68.5,30.03,East,79,0.0,2.0,85,0.00,,---,0.00,VWS V14.00,2013-10-14 19:35:00,
2013-10-14 15:40:00,73.2,68.8,30.03,ENE,69,0.0,0.0,86,0.00,,---,0.00,VWS V14.00,2013-10-14 19:40:00,
2013-10-14 15:45:00,73.1,68.7,30.03,ENE,69,0.0,1.0,86,0.00,,---,0.00,VWS V14.00,2013-10-14 19:45:00,
2013-10-14 15:50:00,73.2,69.4,30.03,ENE,67,0.0,1.0,88,0.00,,---,0.00,VWS V14.00,2013-10-14 19:50:00,
2013-10-14 15:55:00,73.2,69.4,30.02,ENE,67,0.0,1.0,88,0.00,,---,0.00,VWS V14.00,2013-10-14 19:55:00,
2013-10-14 16:00:00,73.2,69.4,30.03,ENE,57,0.0,3.0,88,0.00,,---,0.00,VWS V14.00,2013-10-14 20:00:00,
2013-10-14 16:05:00,73.1,69.3,30.03,ENE,59,0.0,1.0,88,0.00,,---,0.00,VWS V14.00,2013-10-14 20:05:00,
2013-10-14 16:10:00,73.0,68.9,30.03,NE,41,0.0,2.0,87,0.00,,---,0.00,VWS V14.00,2013-10-14 20:10:00,
2013-10-14 16:15:00,72.9,68.8,30.03,NE,46,0.0,3.0,87,0.00,,---,0.00,VWS V14.00,2013-10-14 20:15:00,
2013-10-14 16:20:00,73.0,68.9,30.02,NE,42,0.0,2.0,87,0.00,,---,0.00,VWS V14.00,2013-10-14 20:20:00,
2013-10-14 16:25:00,73.1,69.0,30.02,NE,40,0.0,0.0,87,0.00,,---,0.00,VWS V14.00,2013-10-14 20:25:00,
2013-10-14 16:30:00,73.3,69.5,30.02,NE,40,0.0,1.0,88,0.00,,---,0.00,VWS V14.00,2013-10-14 20:30:00,
2013-10-14 16:35:00,73.3,68.9,30.02,SW,233,0.0,1.0,86,0.00,,---,0.00,VWS V14.00,2013-10-14 20:35:00,
2013-10-14 16:40:00,73.3,68.9,30.02,ENE,67,0.0,0.0,86,0.00,,---,0.00,VWS V14.00,2013-10-14 20:40:00,
2013-10-14 16:45:00,73.4,69.0,30.02,NE,55,0.0,2.0,86,0.00,,---,0.00,VWS V14.00,2013-10-14 20:45:00,
2013-10-14 16:50:00,73.4,68.6,30.02,ENE,72,0.0,1.0,85,0.00,,---,0.00,VWS V14.00,2013-10-14 20:50:00,
2013-10-14 16:55:00,73.6,68.8,30.02,East,79,0.0,1.0,85,0.00,,---,0.00,VWS V14.00,2013-10-14 20:55:00,
2013-10-14 17:00:00,73.7,68.6,30.02,NNE,30,1.0,1.0,84,0.00,,---,0.00,VWS V14.00,2013-10-14 21:00:00,
2013-10-14 17:02:00,73.6,68.5,30.02,NE,47,0.0,3.0,84,0.00,,---,0.00,VWS V14.00,2013-10-14 21:02:00,
2013-10-14 17:07:00,73.7,68.2,30.02,NE,37,0.0,4.0,83,0.00,,---,0.00,VWS V14.00,2013-10-14 21:07:00,
2013-10-14 17:12:00,73.8,68.7,30.02,ENE,76,1.0,6.0,84,0.00,,---,0.00,VWS V14.00,2013-10-14 21:12:00,
2013-10-14 17:17:00,73.8,68.3,30.02,ENE,70,0.0,1.0,83,0.00,,---,0.00,VWS V14.00,2013-10-14 21:17:00,
2013-10-14 17:22:00,73.9,68.8,30.02,NNE,30,0.0,1.0,84,0.00,,---,0.00,VWS V14.00,2013-10-14 21:22:00,
2013-10-14 17:27:00,73.9,68.4,30.02,ENE,59,0.0,3.0,83,0.00,,---,0.00,VWS V14.00,2013-10-14 21:27:00,
2013-10-14 17:32:00,73.9,68.4,30.02,ESE,106,2.0,7.0,83,0.00,,---,0.00,VWS V14.00,2013-10-14 21:32:00,
2013-10-14 17:37:00,73.7,67.9,30.03,NE,56,1.0,5.0,82,0.00,,---,0.00,VWS V14.00,2013-10-14 21:37:00,
2013-10-14 17:42:00,73.7,67.9,30.03,NE,39,0.0,3.0,82,0.00,,---,0.00,VWS V14.00,2013-10-14 21:42:00,
2013-10-14 17:47:00,73.6,67.8,30.02,ENE,67,0.0,2.0,82,0.00,,---,0.00,VWS V14.00,2013-10-14 21:47:00,
2013-10-14 17:52:00,73.6,67.8,30.02,NE,37,1.0,4.0,82,0.00,,---,0.00,VWS V14.00,2013-10-14 21:52:00,
2013-10-14 17:57:00,73.5,67.7,30.03,NE,38,0.0,0.0,82,0.00,,---,0.00,VWS V14.00,2013-10-14 21:57:00,
2013-10-14 18:02:00,73.4,67.9,30.03,NE,36,3.0,3.0,83,0.00,,---,0.00,VWS V14.00,2013-10-14 22:02:00,
2013-10-14 18:07:00,73.3,67.8,30.03,NE,36,0.0,3.0,83,0.00,,---,0.00,VWS V14.00,2013-10-14 22:07:00,
2013-10-14 18:12:00,73.3,67.8,30.03,NE,36,0.0,0.0,83,0.00,,---,0.00,VWS V14.00,2013-10-14 22:12:00,
2013-10-14 18:17:00,73.1,67.3,30.03,ENE,59,1.0,3.0,82,0.00,,---,0.00,VWS V14.00,2013-10-14 22:17:00,
2013-10-14 18:22:00,73.0,67.2,30.04,East,87,0.0,5.0,82,0.00,,---,0.00,VWS V14.00,2013-10-14 22:22:00,
2013-10-14 18:27:00,73.0,67.5,30.03,ENE,61,0.0,2.0,83,0.00,,---,0.00,VWS V14.00,2013-10-14 22:27:00,
2013-10-14 18:32:00,72.9,67.4,30.03,ENE,67,0.0,1.0,83,0.00,,---,0.00,VWS V14.00,2013-10-14 22:32:00,
2013-10-14 18:37:00,72.9,67.4,30.04,NNE,28,1.0,2.0,83,0.00,,---,0.00,VWS V14.00,2013-10-14 22:37:00,
2013-10-14 18:42:00,72.8,67.3,30.05,North,5,0.0,1.0,83,0.00,,---,0.00,VWS V14.00,2013-10-14 22:42:00,
2013-10-14 18:47:00,72.7,67.2,30.05,NE,36,0.0,3.0,83,0.00,,---,0.00,VWS V14.00,2013-10-14 22:47:00,
2013-10-14 18:52:00,72.6,67.2,30.05,West,260,0.0,2.0,83,0.00,,---,0.00,VWS V14.00,2013-10-14 22:52:00,
2013-10-14 18:57:00,72.5,67.1,30.05,ENE,65,0.0,0.0,83,0.00,,---,0.00,VWS V14.00,2013-10-14 22:57:00,
2013-10-14 19:02:00,72.5,67.1,30.05,East,80,0.0,3.0,83,0.00,,---,0.00,VWS V14.00,2013-10-14 23:02:00,
2013-10-14 19:07:00,72.4,66.9,30.05,NE,43,0.0,1.0,83,0.00,,---,0.00,VWS V14.00,2013-10-14 23:07:00,
2013-10-14 19:12:00,72.4,67.3,30.05,East,98,0.0,5.0,84,0.00,,---,0.00,VWS V14.00,2013-10-14 23:12:00,
2013-10-14 19:17:00,72.3,67.2,30.05,NE,49,4.0,4.0,84,0.00,,---,0.00,VWS V14.00,2013-10-14 23:17:00,
2013-10-14 19:22:00,72.2,67.1,30.05,East,91,1.0,4.0,84,0.00,,---,0.00,VWS V14.00,2013-10-14 23:22:00,
2013-10-14 19:27:00,72.2,67.1,30.05,ENE,58,3.0,4.0,84,0.00,,---,0.00,VWS V14.00,2013-10-14 23:27:00,
2013-10-14 19:32:00,72.1,67.0,30.05,NE,44,0.0,1.0,84,0.00,,---,0.00,VWS V14.00,2013-10-14 23:32:00,
2013-10-14 19:37:00,72.0,66.9,30.05,NNE,29,2.0,3.0,84,0.00,,---,0.00,VWS V14.00,2013-10-14 23:37:00,
2013-10-14 19:42:00,71.9,67.2,30.06,ENE,64,0.0,0.0,85,0.00,,---,0.00,VWS V14.00,2013-10-14 23:42:00,
2013-10-14 19:47:00,71.8,67.1,30.06,NE,34,1.0,4.0,85,0.00,,---,0.00,VWS V14.00,2013-10-14 23:47:00,
2013-10-14 19:52:00,71.7,66.9,30.06,ENE,65,2.0,4.0,85,0.00,,---,0.00,VWS V14.00,2013-10-14 23:52:00,
2013-10-14 19:57:00,71.5,66.8,30.06,ENE,57,0.0,5.0,85,0.00,,---,0.00,VWS V14.00,2013-10-14 23:57:00,
2013-10-14 20:02:00,71.4,66.7,30.06,East,87,0.0,7.0,85,0.00,,---,0.00,VWS V14.00,2013-10-15 00:02:00,
2013-10-14 20:07:00,71.3,66.6,30.06,East,91,4.0,5.0,85,0.00,,---,0.00,VWS V14.00,2013-10-15 00:07:00,
2013-10-14 20:12:00,71.1,66.4,30.06,NNE,27,2.0,3.0,85,0.00,,---,0.00,VWS V14.00,2013-10-15 00:12:00,
2013-10-14 20:17:00,71.0,66.3,30.06,North,5,2.0,3.0,85,0.00,,---,0.00,VWS V14.00,2013-10-15 00:17:00,
2013-10-14 20:22:00,70.8,66.4,30.06,NNE,12,4.0,4.0,86,0.00,,---,0.00,VWS V14.00,2013-10-15 00:22:00,
2013-10-14 20:27:00,70.6,66.2,30.06,ENE,73,0.0,0.0,86,0.00,,---,0.00,VWS V14.00,2013-10-15 00:27:00,
2013-10-14 20:32:00,70.5,66.1,30.06,North,11,0.0,2.0,86,0.00,,---,0.00,VWS V14.00,2013-10-15 00:32:00,
2013-10-14 20:37:00,70.4,66.3,30.07,ENE,72,0.0,0.0,87,0.00,,---,0.00,VWS V14.00,2013-10-15 00:37:00,
2013-10-14 20:42:00,70.3,66.2,30.07,NNE,28,0.0,3.0,87,0.00,,---,0.00,VWS V14.00,2013-10-15 00:42:00,
2013-10-14 20:47:00,70.2,66.2,30.07,East,82,5.0,6.0,87,0.00,,---,0.00,VWS V14.00,2013-10-15 00:47:00,
2013-10-14 20:52:00,70.1,66.1,30.07,NNE,32,0.0,1.0,87,0.00,,---,0.00,VWS V14.00,2013-10-15 00:52:00,
2013-10-14 20:57:00,70.0,66.0,30.07,NNE,31,4.0,5.0,87,0.00,,---,0.00,VWS V14.00,2013-10-15 00:57:00,
2013-10-14 21:02:00,69.9,65.9,30.07,NNE,31,0.0,2.0,87,0.00,,---,0.00,VWS V14.00,2013-10-15 01:02:00,
2013-10-14 21:07:00,69.8,66.1,30.07,NE,51,0.0,1.0,88,0.00,,---,0.00,VWS V14.00,2013-10-15 01:07:00,
2013-10-14 21:12:00,69.6,65.9,30.07,ENE,61,1.0,1.0,88,0.00,,---,0.00,VWS V14.00,2013-10-15 01:12:00,
2013-10-14 21:17:00,69.5,65.8,30.08,ENE,74,0.0,2.0,88,0.00,,---,0.00,VWS V14.00,2013-10-15 01:17:00,
2013-10-14 21:22:00,69.3,65.6,30.07,NNE,29,3.0,3.0,88,0.00,,---,0.00,VWS V14.00,2013-10-15 01:22:00,
2013-10-14 21:27:00,69.2,65.5,30.08,East,88,0.0,1.0,88,0.00,,---,0.00,VWS V14.00,2013-10-15 01:27:00,
2013-10-14 21:32:00,69.1,65.7,30.08,NNE,24,3.0,3.0,89,0.00,,---,0.00,VWS V14.00,2013-10-15 01:32:00,
2013-10-14 21:37:00,69.0,65.6,30.08,NE,44,0.0,1.0,89,0.00,,---,0.00,VWS V14.00,2013-10-15 01:37:00,
2013-10-14 21:42:00,68.9,65.5,30.08,ENE,71,2.0,6.0,89,0.00,,---,0.00,VWS V14.00,2013-10-15 01:42:00,
2013-10-14 21:47:00,68.8,65.4,30.08,ENE,72,0.0,4.0,89,0.00,,---,0.00,VWS V14.00,2013-10-15 01:47:00,
2013-10-14 21:52:00,68.7,65.3,30.08,ENE,69,1.0,1.0,89,0.00,,---,0.00,VWS V14.00,2013-10-15 01:52:00,
2013-10-14 21:57:00,68.6,65.2,30.08,NE,34,0.0,2.0,89,0.00,,---,0.00,VWS V14.00,2013-10-15 01:57:00,
2013-10-14 22:02:00,68.5,65.5,30.08,NE,47,2.0,2.0,90,0.00,,---,0.00,VWS V14.00,2013-10-15 02:02:00,
2013-10-14 22:07:00,68.5,65.5,30.08,ENE,62,0.0,1.0,90,0.00,,---,0.00,VWS V14.00,2013-10-15 02:07:00,
2013-10-14 22:12:00,68.4,65.4,30.09,NNE,21,4.0,7.0,90,0.00,,---,0.00,VWS V14.00,2013-10-15 02:12:00,
2013-10-14 22:17:00,68.4,65.4,30.09,NE,37,1.0,2.0,90,0.00,,---,0.00,VWS V14.00,2013-10-15 02:17:00,
2013-10-14 22:22:00,68.4,65.4,30.09,East,88,2.0,4.0,90,0.00,,---,0.00,VWS V14.00,2013-10-15 02:22:00,
2013-10-14 22:27:00,68.4,65.4,30.09,ENE,65,0.0,1.0,90,0.00,,---,0.00,VWS V14.00,2013-10-15 02:27:00,
2013-10-14 22:32:00,68.4,65.4,30.09,ENE,63,0.0,1.0,90,0.00,,---,0.00,VWS V14.00,2013-10-15 02:32:00,
2013-10-14 22:37:00,68.3,65.3,30.09,NE,39,2.0,2.0,90,0.00,,---,0.00,VWS V14.00,2013-10-15 02:37:00,
2013-10-14 22:42:00,68.3,65.3,30.09,NNE,33,4.0,4.0,90,0.00,,---,0.00,VWS V14.00,2013-10-15 02:42:00,
2013-10-14 22:47:00,68.3,65.3,30.10,NE,40,2.0,3.0,90,0.00,,---,0.00,VWS V14.00,2013-10-15 02:47:00,
2013-10-14 22:52:00,68.3,65.3,30.09,ENE,75,0.0,1.0,90,0.00,,---,0.00,VWS V14.00,2013-10-15 02:52:00,
2013-10-14 22:57:00,68.3,65.3,30.09,NE,49,3.0,4.0,90,0.00,,---,0.00,VWS V14.00,2013-10-15 02:57:00,
2013-10-14 23:02:00,68.2,65.2,30.09,ENE,71,0.0,1.0,90,0.00,,---,0.00,VWS V14.00,2013-10-15 03:02:00,
2013-10-14 23:07:00,68.0,65.0,30.09,NE,36,2.0,2.0,90,0.00,,---,0.00,VWS V14.00,2013-10-15 03:07:00,
2013-10-14 23:12:00,68.0,65.0,30.09,ENE,61,2.0,2.0,90,0.00,,---,0.00,VWS V14.00,2013-10-15 03:12:00,
2013-10-14 23:16:00,67.9,64.9,30.09,NNE,27,2.0,2.0,90,0.00,,---,0.00,VWS V14.00,2013-10-15 03:16:00,
2013-10-14 23:21:00,67.8,64.8,30.09,East,86,1.0,5.0,90,0.00,,---,0.00,VWS V14.00,2013-10-15 03:21:00,
2013-10-14 23:26:00,67.7,64.7,30.09,ENE,60,0.0,0.0,90,0.00,,---,0.00,VWS V14.00,2013-10-15 03:26:00,
2013-10-14 23:31:00,67.6,64.9,30.09,ENE,63,0.0,1.0,91,0.00,,---,0.00,VWS V14.00,2013-10-15 03:31:00,
2013-10-14 23:36:00,67.5,64.5,30.09,ENE,69,1.0,1.0,90,0.00,,---,0.00,VWS V14.00,2013-10-15 03:36:00,
2013-10-14 23:41:00,67.4,64.7,30.09,ENE,61,1.0,4.0,91,0.00,,---,0.00,VWS V14.00,2013-10-15 03:41:00,
2013-10-14 23:46:00,67.3,64.6,30.09,NNE,32,0.0,0.0,91,0.00,,---,0.00,VWS V14.00,2013-10-15 03:46:00,
2013-10-14 23:51:00,67.2,64.5,30.09,East,80,0.0,2.0,91,0.00,,---,0.00,VWS V14.00,2013-10-15 03:51:00,
2013-10-14 23:56:00,67.2,64.5,30.08,East,88,0.0,1.0,91,0.00,,---,0.00,VWS V14.00,2013-10-15 03:56:00,